createdAt,value
2018-06-19T00:04:21.807Z,19.50
2018-06-19T00:09:25.493Z,19.50
2018-06-19T00:14:29.047Z,19.60
2018-06-19T00:19:33.341Z,19.70
2018-06-19T00:24:37.017Z,19.80
2018-06-19T00:29:40.637Z,19.70
2018-06-19T00:34:46.345Z,19.80
2018-06-19T00:39:50.995Z,19.90
2018-06-19T00:44:54.743Z,19.60
2018-06-19T00:49:58.323Z,19.60
2018-06-19T00:55:01.856Z,19.70
2018-06-19T01:00:05.409Z,19.60
2018-06-19T01:05:08.947Z,19.80
2018-06-19T01:10:13.606Z,19.80
2018-06-19T01:15:17.176Z,19.80
2018-06-19T01:20:20.997Z,19.90
2018-06-19T01:25:24.636Z,19.80
2018-06-19T01:30:28.650Z,19.90
2018-06-19T01:35:33.907Z,19.90
2018-06-19T01:40:37.555Z,19.80
2018-06-19T01:45:41.839Z,19.30
2018-06-19T01:50:48.389Z,19.40
2018-06-19T01:55:52.039Z,19.30
2018-06-19T02:00:55.672Z,19.20
2018-06-19T02:07:23.673Z,19.20
2018-06-19T02:12:29.783Z,19.10
2018-06-19T02:17:33.559Z,18.90
2018-06-19T02:22:37.459Z,18.90
2018-06-19T02:27:41.072Z,18.80
2018-06-19T02:32:44.673Z,18.60
2018-06-19T02:37:48.585Z,18.70
2018-06-19T02:42:52.230Z,18.70
2018-06-19T02:47:55.896Z,18.50
2018-06-19T02:53:04.475Z,18.60
2018-06-19T02:58:07.981Z,18.50
2018-06-19T03:03:15.709Z,18.40
2018-06-19T03:08:21.879Z,18.40
2018-06-19T03:19:41.120Z,18.20
2018-06-19T03:24:47.749Z,18.20
2018-06-19T03:29:52.413Z,18.20
2018-06-19T03:34:56.483Z,18.30
2018-06-19T03:40:00.548Z,18.20
2018-06-19T03:45:04.885Z,18.20
2018-06-19T03:50:08.890Z,18.20
2018-06-19T04:00:19.873Z,18.00
2018-06-19T04:05:24.717Z,18.00
2018-06-19T04:10:28.836Z,18.20
2018-06-19T04:15:32.573Z,18.30
2018-06-19T04:20:36.552Z,18.20
2018-06-19T04:25:40.735Z,18.30
2018-06-19T04:30:44.643Z,18.40
2018-06-19T04:36:14.601Z,18.60
2018-06-19T04:41:18.931Z,18.70
2018-06-19T04:46:22.599Z,19.00
2018-06-19T04:51:26.414Z,19.00
2018-06-19T04:56:30.104Z,19.00
2018-06-19T05:01:33.679Z,19.10
2018-06-19T05:06:37.411Z,19.20
2018-06-19T05:11:41.852Z,19.30
2018-06-19T05:16:45.763Z,19.40
2018-06-19T05:21:49.487Z,19.40
2018-06-19T05:26:54.105Z,19.40
2018-06-19T05:31:57.726Z,19.60
2018-06-19T05:37:01.566Z,19.70
2018-06-19T05:47:08.974Z,19.70
2018-06-19T05:52:12.623Z,19.80
2018-06-19T05:57:16.201Z,19.90
2018-06-19T06:02:19.837Z,19.90
2018-06-19T06:07:23.397Z,20.10
2018-06-19T06:12:27.045Z,20.40
2018-06-19T06:17:30.673Z,20.60
2018-06-19T06:22:34.347Z,20.70
2018-06-19T06:27:37.873Z,20.70
2018-06-19T06:32:41.842Z,20.90
2018-06-19T06:37:45.528Z,21.00
2018-06-19T06:42:53.939Z,21.00
2018-06-19T06:47:59.265Z,21.40
2018-06-19T06:53:03.191Z,21.70
2018-06-19T06:58:06.896Z,21.70
2018-06-19T07:03:10.593Z,21.90
2018-06-19T07:08:14.263Z,22.20
2018-06-19T07:13:18.001Z,22.80
2018-06-19T07:18:21.769Z,23.00
2018-06-19T07:23:25.824Z,22.60
2018-06-19T07:28:29.602Z,22.90
2018-06-19T07:33:34.779Z,23.20
2018-06-19T07:38:38.992Z,23.00
2018-06-19T07:43:44.144Z,23.40
2018-06-19T07:48:51.393Z,23.20
2018-06-19T07:53:55.697Z,23.70
2018-06-19T07:58:59.493Z,24.10
2018-06-19T08:04:03.279Z,24.00
2018-06-19T08:09:08.875Z,24.20
2018-06-19T08:14:12.553Z,24.40
2018-06-19T08:19:16.260Z,25.00
2018-06-19T08:24:20.176Z,25.50
2018-06-19T08:29:23.956Z,25.70
2018-06-19T08:34:29.766Z,25.80
2018-06-19T08:39:35.561Z,26.10
2018-06-19T08:44:39.285Z,25.90
2018-06-19T08:49:43.049Z,25.40
2018-06-19T08:54:47.067Z,25.70
2018-06-19T08:59:51.678Z,26.10
2018-06-19T09:04:55.517Z,25.90
2018-06-19T09:09:59.235Z,26.10
2018-06-19T09:15:08.189Z,25.80
2018-06-19T09:20:11.948Z,26.10
2018-06-19T09:25:15.605Z,26.10
2018-06-19T09:30:19.472Z,25.80
2018-06-19T09:35:23.924Z,25.70
2018-06-19T09:40:27.626Z,25.70
2018-06-19T09:45:33.874Z,25.80
2018-06-19T09:50:38.999Z,26.40
2018-06-19T09:55:44.597Z,26.10
2018-06-19T10:00:50.380Z,26.10
2018-06-19T10:05:57.398Z,26.00
2018-06-19T10:11:03.754Z,25.70
2018-06-19T10:16:23.177Z,25.70
2018-06-19T10:21:42.483Z,25.40
2018-06-19T10:26:59.004Z,25.70
2018-06-19T10:32:41.589Z,25.40
2018-06-19T10:43:29.597Z,25.80
2018-06-19T11:00:05.920Z,26.10
2018-06-19T11:05:13.264Z,26.00
2018-06-19T11:10:18.048Z,25.80
2018-06-19T11:15:22.835Z,26.00
2018-06-19T11:25:47.873Z,26.20
2018-06-19T11:30:55.164Z,26.10
2018-06-19T11:36:06.044Z,25.80
2018-06-19T11:41:10.739Z,26.10
2018-06-19T11:46:23.584Z,25.90
2018-06-19T11:51:57.616Z,26.30
2018-06-19T11:57:18.625Z,26.90
2018-06-19T12:02:39.996Z,26.70
2018-06-19T12:47:16.691Z,28.50
2018-06-19T12:52:31.551Z,28.50
2018-06-19T12:57:54.427Z,28.80
2018-06-19T13:03:09.346Z,29.20
2018-06-19T13:08:13.504Z,29.50
2018-06-19T13:13:29.693Z,29.70
2018-06-19T13:18:48.290Z,29.00
2018-06-19T13:23:53.278Z,29.30
2018-06-19T13:30:11.489Z,29.60
2018-06-19T13:35:15.366Z,30.10
2018-06-19T13:41:29.256Z,30.30
2018-06-19T13:46:33.092Z,30.60
2018-06-19T13:51:37.320Z,30.00
2018-06-19T14:08:06.127Z,29.50
2018-06-19T14:18:52.150Z,29.10
2018-06-19T14:23:56.750Z,29.00
2018-06-19T14:29:00.459Z,28.60
2018-06-19T14:34:04.124Z,28.30
2018-06-19T14:39:08.249Z,28.60
2018-06-19T14:44:11.786Z,28.60
2018-06-19T14:49:15.469Z,28.60
2018-06-19T14:54:20.296Z,28.50
2018-06-19T14:59:24.296Z,28.10
2018-06-19T15:04:31.433Z,28.10
2018-06-19T15:09:36.150Z,28.40
2018-06-19T15:14:39.943Z,28.10
2018-06-19T15:19:43.654Z,28.20
2018-06-19T15:24:49.156Z,28.40
2018-06-19T15:29:52.809Z,29.00
2018-06-19T15:34:57.501Z,29.50
2018-06-19T15:40:01.243Z,29.40
2018-06-19T15:45:05.860Z,29.30
2018-06-19T15:50:09.757Z,29.20
2018-06-19T15:55:16.886Z,29.50
2018-06-19T16:00:20.655Z,29.10
2018-06-19T16:05:29.513Z,28.70
2018-06-19T16:10:33.110Z,28.80
2018-06-19T16:15:36.865Z,28.20
2018-06-19T16:20:40.415Z,28.20
2018-06-19T16:25:46.361Z,28.50
2018-06-19T16:30:50.070Z,28.50
2018-06-19T16:35:56.004Z,28.50
2018-06-19T16:41:00.672Z,28.70
2018-06-19T16:46:04.364Z,28.90
2018-06-19T16:51:08.064Z,28.60
2018-06-19T16:56:15.376Z,28.40
2018-06-19T17:01:20.114Z,28.40
2018-06-19T17:06:23.666Z,28.30
2018-06-19T17:11:34.988Z,28.30
2018-06-19T17:16:39.171Z,28.30
2018-06-19T17:27:30.137Z,28.20
2018-06-19T17:32:33.918Z,28.00
2018-06-19T17:37:44.331Z,27.80
2018-06-19T17:42:48.229Z,27.50
2018-06-19T17:53:19.984Z,27.30
2018-06-19T17:58:33.961Z,27.00
2018-06-19T18:03:40.471Z,26.90
2018-06-19T18:09:01.955Z,26.80
2018-06-19T18:14:09.922Z,26.70
2018-06-19T18:19:14.923Z,26.60
2018-06-19T18:24:30.461Z,26.30
2018-06-19T18:29:34.327Z,26.20
2018-06-19T18:34:41.516Z,26.10
2018-06-19T18:39:45.333Z,26.10
2018-06-19T18:44:49.058Z,25.90
2018-06-19T18:50:06.274Z,25.80
2018-06-19T19:00:52.601Z,25.60
2018-06-19T19:05:57.229Z,25.50
2018-06-19T19:11:04.795Z,25.30
2018-06-19T19:16:27.941Z,25.10
2018-06-19T19:21:35.259Z,24.90
2018-06-19T19:26:44.122Z,24.70
2018-06-19T19:31:48.850Z,24.60
2018-06-19T19:37:01.801Z,24.50
2018-06-19T19:42:14.985Z,24.30
2018-06-19T19:47:24.579Z,24.00
2018-06-19T19:52:35.439Z,23.80
2018-06-19T19:57:53.565Z,23.70
2018-06-19T20:02:59.745Z,23.50
2018-06-19T20:13:45.315Z,23.20
2018-06-19T20:18:54.788Z,23.00
2018-06-19T20:24:01.231Z,22.90
2018-06-19T20:29:12.874Z,22.80
2018-06-19T20:34:16.378Z,22.80
2018-06-19T20:45:07.635Z,22.80
2018-06-19T20:50:29.945Z,22.70
2018-06-19T20:55:34.762Z,22.60
2018-06-19T21:00:41.881Z,22.40
2018-06-19T21:05:59.602Z,22.30
2018-06-19T21:11:05.702Z,22.30
2018-06-19T21:16:12.750Z,22.20
2018-06-19T21:21:23.972Z,22.20
2018-06-19T21:26:27.581Z,22.00
2018-06-19T21:31:31.036Z,22.00
2018-06-19T21:47:55.719Z,21.60
2018-06-19T21:53:01.991Z,21.50
2018-06-19T21:58:09.302Z,21.40
2018-06-19T22:03:14.630Z,21.20
2018-06-19T22:09:33.987Z,21.20
2018-06-19T22:14:49.129Z,21.10
2018-06-19T22:25:39.893Z,20.80
2018-06-19T22:53:21.186Z,20.20
2018-06-19T23:04:09.611Z,20.00
2018-06-19T23:14:54.026Z,19.80
2018-06-19T23:20:04.790Z,19.60
2018-06-19T23:25:10.405Z,19.50
2018-06-19T23:30:14.284Z,19.60
2018-06-19T23:35:20.105Z,19.50
2018-06-19T23:40:25.146Z,19.50
2018-06-19T23:45:28.712Z,19.50
2018-06-19T23:50:35.804Z,19.50
2018-06-19T23:55:41.883Z,19.50
